createdAt,value
2017-08-16T00:00:22.006Z,19.30
2017-08-16T00:02:49.515Z,19.20
2017-08-16T00:05:17.059Z,19.10
2017-08-16T00:07:44.575Z,19.10
2017-08-16T00:10:12.104Z,19.10
2017-08-16T00:12:39.669Z,19.00
2017-08-16T00:15:07.179Z,19.00
2017-08-16T00:17:34.694Z,18.90
2017-08-16T00:20:02.239Z,18.90
2017-08-16T00:22:29.755Z,18.90
2017-08-16T00:24:57.271Z,18.80
2017-08-16T00:27:24.829Z,18.80
2017-08-16T00:29:52.342Z,18.80
2017-08-16T00:32:19.874Z,18.70
2017-08-16T00:34:47.379Z,18.70
2017-08-16T00:37:14.890Z,18.70
2017-08-16T00:39:42.423Z,18.80
2017-08-16T00:42:09.930Z,18.80
2017-08-16T00:44:37.439Z,18.70
2017-08-16T00:47:04.971Z,18.70
2017-08-16T00:49:32.483Z,18.70
2017-08-16T00:51:59.995Z,18.80
2017-08-16T00:54:27.527Z,18.70
2017-08-16T00:56:55.060Z,18.70
2017-08-16T00:59:22.584Z,18.70
2017-08-16T01:01:50.098Z,18.70
2017-08-16T01:04:17.641Z,18.70
2017-08-16T01:06:45.160Z,18.70
2017-08-16T01:09:12.674Z,18.70
2017-08-16T01:11:40.215Z,18.70
2017-08-16T01:14:07.727Z,18.70
2017-08-16T01:16:35.243Z,18.70
2017-08-16T01:19:02.967Z,18.70
2017-08-16T01:21:30.478Z,18.70
2017-08-16T01:23:57.992Z,18.60
2017-08-16T01:26:25.539Z,18.60
2017-08-16T01:28:53.056Z,18.60
2017-08-16T01:31:20.583Z,18.70
2017-08-16T01:33:48.123Z,18.70
2017-08-16T01:36:15.643Z,18.70
2017-08-16T01:38:43.155Z,18.60
2017-08-16T01:41:10.698Z,18.60
2017-08-16T01:43:38.206Z,18.60
2017-08-16T01:46:05.775Z,18.60
2017-08-16T01:48:33.310Z,18.60
2017-08-16T01:51:00.926Z,18.60
2017-08-16T01:53:28.435Z,18.60
2017-08-16T01:55:55.972Z,18.60
2017-08-16T01:58:23.478Z,18.60
2017-08-16T02:00:50.987Z,18.50
2017-08-16T02:03:18.523Z,18.50
2017-08-16T02:05:46.031Z,18.50
2017-08-16T02:08:13.541Z,18.50
2017-08-16T02:10:41.111Z,18.50
2017-08-16T02:13:08.629Z,18.50
2017-08-16T02:15:36.159Z,18.50
2017-08-16T02:18:03.695Z,18.50
2017-08-16T02:20:31.229Z,18.50
2017-08-16T02:22:58.770Z,18.50
2017-08-16T02:25:26.283Z,18.50
2017-08-16T02:27:53.792Z,18.50
2017-08-16T02:30:21.326Z,18.50
2017-08-16T02:32:48.842Z,18.50
2017-08-16T02:35:16.359Z,18.50
2017-08-16T02:37:43.903Z,18.40
2017-08-16T02:40:11.419Z,18.40
2017-08-16T02:42:38.932Z,18.40
2017-08-16T02:45:06.475Z,18.40
2017-08-16T02:47:33.991Z,18.40
2017-08-16T02:50:01.512Z,18.40
2017-08-16T02:52:29.072Z,18.50
2017-08-16T02:54:56.615Z,18.50
2017-08-16T02:57:24.125Z,18.50
2017-08-16T02:59:51.670Z,18.50
2017-08-16T03:02:19.188Z,18.50
2017-08-16T03:04:46.703Z,18.50
2017-08-16T03:07:14.243Z,18.50
2017-08-16T03:09:41.771Z,18.50
2017-08-16T03:12:09.287Z,18.50
2017-08-16T03:14:36.835Z,18.50
2017-08-16T03:17:04.377Z,18.50
2017-08-16T03:19:31.896Z,18.50
2017-08-16T03:21:59.442Z,18.40
2017-08-16T03:24:26.955Z,18.50
2017-08-16T03:26:54.484Z,18.50
2017-08-16T03:29:22.048Z,18.40
2017-08-16T03:31:49.580Z,18.40
2017-08-16T03:34:17.110Z,18.40
2017-08-16T03:36:44.659Z,18.40
2017-08-16T03:39:12.189Z,18.50
2017-08-16T03:41:39.734Z,18.50
2017-08-16T03:44:07.275Z,18.50
2017-08-16T03:46:34.811Z,18.60
2017-08-16T03:49:02.363Z,18.60
2017-08-16T03:51:29.896Z,18.60
2017-08-16T03:53:57.444Z,18.60
2017-08-16T03:56:24.996Z,18.50
2017-08-16T03:58:52.515Z,18.50
2017-08-16T04:01:20.027Z,18.50
2017-08-16T04:03:47.566Z,18.60
2017-08-16T04:06:15.106Z,18.50
2017-08-16T04:08:42.634Z,18.50
2017-08-16T04:11:10.165Z,18.50
2017-08-16T04:13:37.707Z,18.50
2017-08-16T04:16:05.231Z,18.50
2017-08-16T04:18:32.762Z,18.50
2017-08-16T04:21:00.300Z,18.50
2017-08-16T04:23:27.830Z,18.40
2017-08-16T04:25:55.343Z,18.40
2017-08-16T04:28:22.903Z,18.50
2017-08-16T04:30:50.419Z,18.50
2017-08-16T04:33:17.976Z,18.50
2017-08-16T04:35:45.515Z,18.50
2017-08-16T04:38:13.043Z,18.50
2017-08-16T04:40:40.555Z,18.50
2017-08-16T04:43:08.092Z,18.50
2017-08-16T04:45:35.606Z,18.40
2017-08-16T04:48:03.123Z,18.40
2017-08-16T04:50:30.668Z,18.50
2017-08-16T04:52:58.189Z,18.40
2017-08-16T04:55:25.710Z,18.50
2017-08-16T04:57:53.246Z,18.50
2017-08-16T05:00:20.765Z,18.50
2017-08-16T05:02:48.273Z,18.50
2017-08-16T05:05:15.802Z,18.50
2017-08-16T05:07:43.340Z,18.50
2017-08-16T05:10:10.852Z,18.50
2017-08-16T05:12:38.383Z,18.60
2017-08-16T05:15:05.909Z,18.60
2017-08-16T05:17:33.456Z,18.70
2017-08-16T05:20:00.965Z,18.80
2017-08-16T05:22:28.479Z,18.80
2017-08-16T05:24:56.013Z,18.80
2017-08-16T05:27:23.568Z,18.80
2017-08-16T05:29:51.080Z,18.80
2017-08-16T05:32:18.614Z,18.80
2017-08-16T05:34:46.160Z,18.90
2017-08-16T05:37:13.663Z,19.00
2017-08-16T05:39:41.183Z,19.10
2017-08-16T05:42:08.719Z,19.10
2017-08-16T05:44:36.248Z,19.20
2017-08-16T05:47:03.764Z,19.20
2017-08-16T05:49:31.303Z,19.40
2017-08-16T05:51:58.827Z,19.50
2017-08-16T05:54:26.343Z,19.60
2017-08-16T05:56:53.874Z,19.80
2017-08-16T05:59:21.390Z,19.80
2017-08-16T06:01:48.894Z,19.80
2017-08-16T06:04:16.427Z,19.80
2017-08-16T06:06:43.941Z,19.80
2017-08-16T06:09:11.446Z,19.80
2017-08-16T06:11:38.974Z,19.90
2017-08-16T06:14:06.491Z,20.10
2017-08-16T06:16:34.002Z,20.10
2017-08-16T06:19:01.539Z,20.30
2017-08-16T06:21:29.082Z,20.30
2017-08-16T06:23:56.628Z,20.30
2017-08-16T06:26:24.149Z,20.30
2017-08-16T06:28:51.680Z,20.40
2017-08-16T06:31:19.220Z,20.30
2017-08-16T06:33:46.730Z,20.30
2017-08-16T06:36:14.252Z,20.40
2017-08-16T06:38:41.791Z,20.60
2017-08-16T06:41:09.303Z,20.70
2017-08-16T06:43:36.865Z,20.80
2017-08-16T06:46:04.407Z,20.90
2017-08-16T06:48:31.921Z,20.90
2017-08-16T06:50:59.455Z,20.70
2017-08-16T06:53:27.104Z,20.50
2017-08-16T06:55:54.623Z,20.40
2017-08-16T06:58:22.126Z,20.30
2017-08-16T07:00:49.674Z,20.20
2017-08-16T07:03:17.185Z,20.20
2017-08-16T07:05:44.703Z,20.20
2017-08-16T07:08:12.245Z,20.20
2017-08-16T07:10:39.760Z,20.20
2017-08-16T07:13:07.284Z,20.30
2017-08-16T07:15:34.825Z,20.50
2017-08-16T07:18:02.697Z,20.60
2017-08-16T07:20:30.207Z,20.70
2017-08-16T07:22:57.723Z,20.80
2017-08-16T07:25:25.263Z,20.90
2017-08-16T07:27:52.800Z,21.00
2017-08-16T07:30:20.314Z,21.00
2017-08-16T07:32:47.831Z,21.10
2017-08-16T07:35:15.362Z,21.10
2017-08-16T07:37:42.877Z,21.10
2017-08-16T07:40:10.395Z,21.10
2017-08-16T07:42:37.923Z,21.20
2017-08-16T07:45:05.436Z,21.30
2017-08-16T07:47:32.947Z,21.50
2017-08-16T07:50:00.476Z,21.60
2017-08-16T07:52:27.986Z,21.70
2017-08-16T07:54:55.501Z,21.80
2017-08-16T07:57:23.066Z,22.00
2017-08-16T07:59:50.579Z,22.20
2017-08-16T08:02:18.095Z,22.40
2017-08-16T08:04:45.627Z,22.50
2017-08-16T08:07:13.143Z,22.60
2017-08-16T08:09:40.687Z,22.60
2017-08-16T08:12:08.226Z,22.70
2017-08-16T08:14:35.738Z,22.80
2017-08-16T08:17:03.260Z,23.10
2017-08-16T08:19:30.800Z,23.20
2017-08-16T08:21:58.310Z,23.30
2017-08-16T08:24:25.827Z,23.20
2017-08-16T08:26:53.362Z,23.20
2017-08-16T08:29:20.880Z,23.10
2017-08-16T08:31:48.400Z,23.10
2017-08-16T08:34:15.930Z,23.10
2017-08-16T08:36:43.444Z,23.20
2017-08-16T08:39:10.995Z,23.30
2017-08-16T08:41:39.371Z,23.30
2017-08-16T08:44:06.878Z,23.20
2017-08-16T08:46:34.432Z,23.10
2017-08-16T08:49:01.971Z,23.20
2017-08-16T08:51:29.487Z,23.30
2017-08-16T08:53:57.011Z,23.20
2017-08-16T08:56:24.552Z,23.30
2017-08-16T08:58:52.072Z,23.40
2017-08-16T09:01:19.595Z,23.50
2017-08-16T09:03:47.142Z,23.50
2017-08-16T09:06:14.646Z,23.50
2017-08-16T09:08:42.150Z,23.50
2017-08-16T09:11:09.675Z,23.50
2017-08-16T09:13:37.186Z,23.60
2017-08-16T09:16:04.705Z,23.60
2017-08-16T09:18:32.258Z,23.70
2017-08-16T09:20:59.774Z,23.60
2017-08-16T09:23:27.277Z,23.80
2017-08-16T09:25:54.801Z,23.80
2017-08-16T09:28:22.316Z,23.90
2017-08-16T09:30:49.826Z,23.80
2017-08-16T09:33:17.387Z,23.60
2017-08-16T09:35:44.903Z,23.50
2017-08-16T09:38:12.440Z,23.30
2017-08-16T09:40:39.951Z,23.30
2017-08-16T09:43:07.524Z,23.40
2017-08-16T09:45:35.059Z,23.70
2017-08-16T09:48:02.571Z,23.90
2017-08-16T09:50:30.106Z,24.00
2017-08-16T09:52:57.703Z,24.10
2017-08-16T09:55:25.251Z,23.70
2017-08-16T09:57:52.799Z,23.70
2017-08-16T10:00:20.309Z,23.80
2017-08-16T10:02:47.827Z,23.70
2017-08-16T10:05:15.362Z,23.80
2017-08-16T10:07:42.866Z,23.70
2017-08-16T10:10:10.395Z,23.80
2017-08-16T10:12:37.939Z,23.70
2017-08-16T10:15:05.453Z,23.60
2017-08-16T10:17:32.962Z,23.50
2017-08-16T10:20:00.498Z,23.60
2017-08-16T10:22:28.006Z,24.00
2017-08-16T10:24:55.520Z,24.60
2017-08-16T10:27:23.057Z,25.00
2017-08-16T10:29:50.567Z,25.10
2017-08-16T10:32:18.180Z,25.10
2017-08-16T10:34:45.715Z,25.10
2017-08-16T10:37:13.305Z,25.20
2017-08-16T10:39:40.824Z,25.20
2017-08-16T10:42:08.366Z,25.20
2017-08-16T10:44:35.881Z,25.20
2017-08-16T10:47:03.383Z,25.30
2017-08-16T10:49:30.919Z,25.40
2017-08-16T10:51:58.430Z,25.50
2017-08-16T10:54:25.947Z,25.60
2017-08-16T10:56:53.478Z,25.50
2017-08-16T10:59:20.991Z,25.60
2017-08-16T11:01:48.507Z,25.60
2017-08-16T11:04:16.054Z,25.60
2017-08-16T11:06:43.563Z,25.60
2017-08-16T11:09:11.070Z,25.60
2017-08-16T11:11:38.598Z,25.40
2017-08-16T11:14:06.116Z,25.40
2017-08-16T11:16:33.618Z,25.30
2017-08-16T11:19:01.147Z,25.50
2017-08-16T11:21:28.655Z,25.60
2017-08-16T11:23:56.171Z,25.50
2017-08-16T11:26:23.708Z,25.90
2017-08-16T11:28:51.229Z,25.80
2017-08-16T11:31:18.739Z,25.90
2017-08-16T11:33:46.274Z,26.00
2017-08-16T11:36:13.792Z,26.00
2017-08-16T11:38:41.306Z,26.00
2017-08-16T11:41:08.847Z,25.90
2017-08-16T11:43:36.359Z,25.60
2017-08-16T11:46:03.875Z,25.60
2017-08-16T11:48:31.419Z,25.60
2017-08-16T11:50:58.935Z,25.70
2017-08-16T11:53:26.448Z,25.80
2017-08-16T11:55:53.987Z,25.80
2017-08-16T11:58:21.498Z,25.60
2017-08-16T12:00:49.016Z,25.50
2017-08-16T12:03:16.572Z,25.60
2017-08-16T12:05:44.082Z,25.50
2017-08-16T12:08:11.596Z,25.50
2017-08-16T12:10:39.150Z,25.40
2017-08-16T12:13:06.663Z,25.50
2017-08-16T12:15:34.279Z,25.50
2017-08-16T12:18:01.832Z,25.50
2017-08-16T12:20:29.434Z,25.40
2017-08-16T12:22:56.983Z,25.60
2017-08-16T12:25:24.523Z,25.70
2017-08-16T12:30:25.860Z,25.60
2017-08-16T12:32:53.408Z,25.50
2017-08-16T12:35:20.943Z,25.30
2017-08-16T12:37:48.483Z,25.30
2017-08-16T12:40:16.019Z,25.50
2017-08-16T12:42:43.564Z,25.40
2017-08-16T12:45:11.084Z,25.50
2017-08-16T12:47:38.591Z,25.40
2017-08-16T12:50:06.129Z,25.30
2017-08-16T12:52:33.638Z,25.20
2017-08-16T12:55:01.146Z,25.10
2017-08-16T12:57:29.506Z,25.20
2017-08-16T12:59:57.019Z,25.40
2017-08-16T13:02:24.540Z,25.50
2017-08-16T13:04:52.118Z,25.40
2017-08-16T13:07:19.640Z,25.50
2017-08-16T13:09:47.152Z,25.60
2017-08-16T13:12:14.690Z,25.70
2017-08-16T13:14:42.203Z,25.80
2017-08-16T13:17:09.727Z,25.80
2017-08-16T13:19:37.263Z,25.90
2017-08-16T13:22:04.775Z,26.00
2017-08-16T13:24:32.292Z,25.90
2017-08-16T13:26:59.825Z,26.00
2017-08-16T13:29:27.334Z,26.00
2017-08-16T13:31:54.845Z,26.10
2017-08-16T13:34:22.384Z,26.10
2017-08-16T13:36:49.899Z,26.10
2017-08-16T13:39:17.402Z,26.10
2017-08-16T13:41:44.942Z,26.40
2017-08-16T13:44:12.445Z,26.50
2017-08-16T13:46:39.966Z,26.50
2017-08-16T13:49:07.517Z,26.40
2017-08-16T13:51:35.023Z,26.50
2017-08-16T13:54:02.540Z,26.50
2017-08-16T13:56:30.107Z,26.70
2017-08-16T13:58:57.618Z,26.70
2017-08-16T14:01:25.151Z,26.80
2017-08-16T14:03:52.700Z,26.90
2017-08-16T14:06:20.215Z,26.90
2017-08-16T14:08:47.727Z,26.70
2017-08-16T14:11:15.283Z,26.80
2017-08-16T14:13:42.793Z,26.90
2017-08-16T14:16:10.325Z,27.00
2017-08-16T14:18:37.855Z,27.10
2017-08-16T14:21:05.368Z,27.30
2017-08-16T14:23:32.878Z,27.30
2017-08-16T14:26:00.405Z,27.40
2017-08-16T14:28:27.910Z,27.50
2017-08-16T14:30:55.438Z,27.60
2017-08-16T14:33:22.975Z,27.50
2017-08-16T14:35:50.487Z,27.40
2017-08-16T14:38:17.994Z,27.40
2017-08-16T14:40:45.519Z,27.30
2017-08-16T14:43:13.031Z,27.30
2017-08-16T14:45:40.543Z,27.30
2017-08-16T14:48:08.080Z,27.50
2017-08-16T14:50:35.593Z,27.30
2017-08-16T14:53:03.103Z,26.90
2017-08-16T14:55:30.639Z,26.70
2017-08-16T14:57:58.151Z,26.70
2017-08-16T15:00:25.668Z,26.80
2017-08-16T15:02:53.206Z,26.90
2017-08-16T15:05:20.714Z,26.90
2017-08-16T15:07:48.234Z,27.00
2017-08-16T15:10:15.762Z,27.00
2017-08-16T15:12:43.262Z,26.90
2017-08-16T15:15:10.771Z,27.00
2017-08-16T15:17:38.333Z,26.80
2017-08-16T15:20:05.843Z,26.60
2017-08-16T15:22:33.347Z,26.60
2017-08-16T15:25:00.879Z,26.40
2017-08-16T15:27:28.383Z,26.50
2017-08-16T15:29:55.886Z,26.60
2017-08-16T15:32:23.498Z,26.70
2017-08-16T15:34:51.010Z,26.90
2017-08-16T15:37:18.515Z,27.10
2017-08-16T15:39:46.054Z,27.10
2017-08-16T15:42:13.566Z,27.20
2017-08-16T15:44:41.078Z,27.20
2017-08-16T15:47:08.613Z,27.20
2017-08-16T15:49:36.126Z,27.00
2017-08-16T15:52:03.638Z,26.80
2017-08-16T15:54:31.183Z,26.50
2017-08-16T15:56:58.695Z,26.40
2017-08-16T15:59:26.205Z,26.40
2017-08-16T16:01:53.738Z,26.40
2017-08-16T16:04:21.246Z,26.40
2017-08-16T16:06:48.755Z,26.30
2017-08-16T16:09:16.296Z,26.10
2017-08-16T16:11:43.810Z,25.90
2017-08-16T16:14:11.326Z,25.80
2017-08-16T16:16:38.859Z,25.80
2017-08-16T16:19:06.372Z,25.80
2017-08-16T16:21:33.887Z,25.90
2017-08-16T16:24:01.427Z,25.90
2017-08-16T16:26:28.938Z,25.90
2017-08-16T16:28:56.452Z,26.00
2017-08-16T16:31:23.984Z,26.20
2017-08-16T16:33:51.500Z,26.10
2017-08-16T16:36:19.029Z,26.10
2017-08-16T16:38:46.571Z,25.90
2017-08-16T16:41:14.083Z,25.80
2017-08-16T16:43:41.595Z,25.80
2017-08-16T16:46:09.135Z,25.70
2017-08-16T16:48:36.660Z,25.70
2017-08-16T16:51:04.183Z,25.60
2017-08-16T16:53:31.728Z,25.60
2017-08-16T16:55:59.238Z,25.60
2017-08-16T16:58:26.750Z,25.60
2017-08-16T17:00:54.283Z,25.60
2017-08-16T17:03:21.796Z,25.60
2017-08-16T17:05:49.311Z,25.50
2017-08-16T17:08:16.855Z,25.50
2017-08-16T17:10:44.366Z,25.50
2017-08-16T17:13:11.878Z,25.40
2017-08-16T17:15:39.422Z,25.30
2017-08-16T17:18:07.298Z,25.30
2017-08-16T17:20:34.835Z,25.20
2017-08-16T17:23:02.355Z,25.10
2017-08-16T17:25:29.863Z,25.00
2017-08-16T17:27:57.407Z,25.00
2017-08-16T17:30:24.915Z,24.90
2017-08-16T17:32:52.428Z,25.00
2017-08-16T17:35:19.963Z,24.90
2017-08-16T17:37:47.498Z,24.90
2017-08-16T17:40:15.006Z,24.90
2017-08-16T17:42:42.518Z,24.80
2017-08-16T17:45:10.051Z,24.70
2017-08-16T17:47:37.573Z,24.70
2017-08-16T17:50:05.087Z,24.70
2017-08-16T17:52:32.623Z,24.60
2017-08-16T17:55:00.139Z,24.60
2017-08-16T17:57:27.651Z,24.50
2017-08-16T17:59:55.179Z,24.50
2017-08-16T18:02:22.696Z,24.40
2017-08-16T18:04:50.212Z,24.30
2017-08-16T18:07:17.751Z,24.20
2017-08-16T18:09:45.272Z,24.20
2017-08-16T18:12:12.778Z,24.20
2017-08-16T18:14:40.319Z,24.10
2017-08-16T18:17:07.836Z,24.10
2017-08-16T18:19:35.355Z,24.10
2017-08-16T18:22:02.894Z,24.10
2017-08-16T18:24:30.431Z,24.00
2017-08-16T18:26:57.939Z,24.00
2017-08-16T18:29:25.483Z,24.00
2017-08-16T18:31:52.998Z,24.00
2017-08-16T18:34:20.515Z,24.00
2017-08-16T18:36:48.062Z,23.90
2017-08-16T18:39:15.584Z,23.90
2017-08-16T18:41:43.099Z,23.80
2017-08-16T18:44:10.635Z,23.70
2017-08-16T18:46:38.152Z,23.60
2017-08-16T18:49:05.662Z,23.50
2017-08-16T18:51:33.206Z,23.40
2017-08-16T18:54:00.718Z,23.30
2017-08-16T18:56:28.236Z,23.20
2017-08-16T18:58:55.770Z,23.10
2017-08-16T19:01:23.288Z,23.10
2017-08-16T19:03:50.803Z,22.90
2017-08-16T19:06:18.343Z,22.80
2017-08-16T19:08:45.855Z,22.80
2017-08-16T19:11:13.376Z,22.70
2017-08-16T19:13:40.923Z,22.60
2017-08-16T19:16:08.439Z,22.60
2017-08-16T19:18:35.950Z,22.60
2017-08-16T19:21:03.488Z,22.60
2017-08-16T19:23:31.000Z,22.60
2017-08-16T19:25:58.519Z,22.50
2017-08-16T19:28:26.059Z,22.40
2017-08-16T19:30:53.575Z,22.30
2017-08-16T19:33:21.093Z,22.20
2017-08-16T19:35:48.630Z,22.20
2017-08-16T19:38:16.163Z,22.10
2017-08-16T19:40:43.680Z,22.10
2017-08-16T19:43:11.207Z,22.10
2017-08-16T19:45:38.715Z,22.10
2017-08-16T19:48:06.222Z,22.10
2017-08-16T19:50:33.766Z,22.00
2017-08-16T19:53:01.289Z,21.90
2017-08-16T19:55:28.803Z,21.80
2017-08-16T19:57:56.352Z,21.80
2017-08-16T20:00:23.866Z,21.80
2017-08-16T20:02:51.375Z,21.70
2017-08-16T20:05:18.910Z,21.70
2017-08-16T20:07:46.423Z,21.70
2017-08-16T20:10:14.793Z,21.70
2017-08-16T20:12:42.331Z,21.60
2017-08-16T20:15:09.841Z,21.60
2017-08-16T20:17:37.351Z,21.60
2017-08-16T20:20:04.883Z,21.60
2017-08-16T20:22:32.391Z,21.60
2017-08-16T20:24:59.928Z,21.50
2017-08-16T20:27:27.474Z,21.50
2017-08-16T20:29:54.983Z,21.40
2017-08-16T20:32:22.495Z,21.40
2017-08-16T20:34:50.039Z,21.40
2017-08-16T20:37:17.555Z,21.40
2017-08-16T20:39:45.063Z,21.40
2017-08-16T20:42:12.604Z,21.30
2017-08-16T20:44:40.167Z,21.30
2017-08-16T20:47:07.676Z,21.30
2017-08-16T20:49:35.207Z,21.30
2017-08-16T20:52:02.710Z,21.20
2017-08-16T20:54:30.254Z,21.20
2017-08-16T20:56:57.803Z,21.20
2017-08-16T20:59:25.339Z,21.30
2017-08-16T21:01:52.898Z,21.20
2017-08-16T21:04:20.451Z,21.10
2017-08-16T21:06:47.976Z,21.10
2017-08-16T21:09:15.482Z,21.10
2017-08-16T21:11:43.019Z,21.00
2017-08-16T21:14:10.540Z,20.90
2017-08-16T21:16:38.055Z,20.80
2017-08-16T21:19:05.595Z,20.80
2017-08-16T21:21:33.110Z,20.80
2017-08-16T21:24:00.624Z,20.70
2017-08-16T21:26:28.159Z,20.70
2017-08-16T21:28:55.675Z,20.70
2017-08-16T21:31:23.190Z,20.60
2017-08-16T21:33:50.739Z,20.60
2017-08-16T21:36:18.255Z,20.50
2017-08-16T21:38:45.766Z,20.60
2017-08-16T21:41:13.303Z,20.60
2017-08-16T21:43:40.833Z,20.60
2017-08-16T21:46:08.367Z,20.60
2017-08-16T21:48:35.880Z,20.50
2017-08-16T21:51:03.392Z,20.50
2017-08-16T21:53:30.931Z,20.40
2017-08-16T21:55:58.444Z,20.40
2017-08-16T21:58:25.957Z,20.30
2017-08-16T22:00:53.497Z,20.30
2017-08-16T22:03:21.013Z,20.20
2017-08-16T22:05:48.527Z,20.20
2017-08-16T22:08:16.058Z,20.10
2017-08-16T22:10:43.569Z,20.10
2017-08-16T22:13:11.087Z,20.10
2017-08-16T22:15:38.622Z,20.10
2017-08-16T22:18:06.154Z,20.00
2017-08-16T22:20:33.653Z,19.90
2017-08-16T22:23:01.170Z,19.90
2017-08-16T22:25:28.738Z,19.90
2017-08-16T22:27:56.248Z,19.80
2017-08-16T22:30:23.767Z,19.80
2017-08-16T22:32:51.306Z,19.80
2017-08-16T22:35:18.824Z,19.80
2017-08-16T22:37:46.352Z,19.80
2017-08-16T22:40:13.903Z,19.70
2017-08-16T22:42:41.415Z,19.70
2017-08-16T22:45:08.935Z,19.70
2017-08-16T22:47:36.477Z,19.70
2017-08-16T22:50:03.987Z,19.70
2017-08-16T22:52:31.526Z,19.60
2017-08-16T22:54:59.031Z,19.70
2017-08-16T22:57:26.543Z,19.70
2017-08-16T22:59:54.087Z,19.70
2017-08-16T23:02:21.624Z,19.70
2017-08-16T23:04:49.155Z,19.70
2017-08-16T23:07:16.694Z,19.70
2017-08-16T23:09:44.203Z,19.60
2017-08-16T23:12:11.718Z,19.60
2017-08-16T23:14:39.250Z,19.60
2017-08-16T23:17:06.762Z,19.50
2017-08-16T23:19:34.271Z,19.50
2017-08-16T23:22:01.827Z,19.50
2017-08-16T23:24:29.356Z,19.50
2017-08-16T23:26:56.883Z,19.50
2017-08-16T23:29:24.452Z,19.50
2017-08-16T23:31:51.963Z,19.40
2017-08-16T23:34:19.479Z,19.50
2017-08-16T23:36:47.022Z,19.50
2017-08-16T23:39:14.554Z,19.50
2017-08-16T23:41:42.063Z,19.50
2017-08-16T23:44:09.627Z,19.40
2017-08-16T23:46:37.163Z,19.40
2017-08-16T23:49:04.694Z,19.50
2017-08-16T23:51:32.240Z,19.40
2017-08-16T23:53:59.779Z,19.40
2017-08-16T23:56:27.343Z,19.40
2017-08-16T23:58:54.883Z,19.30
